sensor_id;sensor_type;location;lat;lon;timestamp;P1;durP1;ratioP1;P2;durP2;ratioP2
10795;SDS011;5450;42.994;23.372;2022-11-15T00:01:05;17.80;;;12.60;;
10795;SDS011;5450;42.994;23.372;2022-11-15T00:03:40;19.53;;;12.50;;
10795;SDS011;5450;42.994;23.372;2022-11-15T00:06:08;16.40;;;11.97;;
10795;SDS011;5450;42.994;23.372;2022-11-15T00:08:35;19.53;;;12.93;;
10795;SDS011;5450;42.994;23.372;2022-11-15T00:11:14;21.47;;;14.17;;
10795;SDS011;5450;42.994;23.372;2022-11-15T00:13:43;21.13;;;13.60;;
10795;SDS011;5450;42.994;23.372;2022-11-15T00:16:10;19.43;;;11.83;;
10795;SDS011;5450;42.994;23.372;2022-11-15T00:18:37;24.00;;;12.63;;
10795;SDS011;5450;42.994;23.372;2022-11-15T00:21:07;20.27;;;12.97;;
10795;SDS011;5450;42.994;23.372;2022-11-15T00:23:36;17.87;;;11.90;;
10795;SDS011;5450;42.994;23.372;2022-11-15T00:26:04;17.77;;;11.50;;
10795;SDS011;5450;42.994;23.372;2022-11-15T00:28:31;16.23;;;12.07;;
10795;SDS011;5450;42.994;23.372;2022-11-15T00:31:01;22.53;;;12.80;;
10795;SDS011;5450;42.994;23.372;2022-11-15T00:33:29;19.33;;;12.03;;
10795;SDS011;5450;42.994;23.372;2022-11-15T00:36:01;20.70;;;13.23;;
10795;SDS011;5450;42.994;23.372;2022-11-15T00:38:32;18.73;;;11.57;;
10795;SDS011;5450;42.994;23.372;2022-11-15T00:41:00;18.40;;;12.63;;
10795;SDS011;5450;42.994;23.372;2022-11-15T00:43:28;21.60;;;12.57;;
10795;SDS011;5450;42.994;23.372;2022-11-15T00:45:55;15.97;;;10.53;;
10795;SDS011;5450;42.994;23.372;2022-11-15T00:51:34;15.70;;;11.37;;
10795;SDS011;5450;42.994;23.372;2022-11-15T00:54:10;17.30;;;10.37;;
10795;SDS011;5450;42.994;23.372;2022-11-15T00:56:37;18.50;;;10.67;;
10795;SDS011;5450;42.994;23.372;2022-11-15T01:02:03;15.23;;;10.40;;
10795;SDS011;5450;42.994;23.372;2022-11-15T01:04:30;16.30;;;11.53;;
10795;SDS011;5450;42.994;23.372;2022-11-15T01:06:59;17.33;;;10.87;;
10795;SDS011;5450;42.994;23.372;2022-11-15T01:09:26;17.03;;;11.47;;
10795;SDS011;5450;42.994;23.372;2022-11-15T01:11:53;18.80;;;11.90;;
10795;SDS011;5450;42.994;23.372;2022-11-15T01:14:19;14.97;;;10.53;;
10795;SDS011;5450;42.994;23.372;2022-11-15T01:16:46;16.03;;;10.73;;
10795;SDS011;5450;42.994;23.372;2022-11-15T01:19:26;19.43;;;12.97;;
10795;SDS011;5450;42.994;23.372;2022-11-15T01:21:53;19.23;;;11.03;;
10795;SDS011;5450;42.994;23.372;2022-11-15T01:24:21;17.33;;;10.90;;
10795;SDS011;5450;42.994;23.372;2022-11-15T01:26:49;17.80;;;10.57;;
10795;SDS011;5450;42.994;23.372;2022-11-15T01:29:16;15.67;;;10.57;;
10795;SDS011;5450;42.994;23.372;2022-11-15T01:31:43;15.47;;;10.77;;
10795;SDS011;5450;42.994;23.372;2022-11-15T01:34:10;15.47;;;10.67;;
10795;SDS011;5450;42.994;23.372;2022-11-15T01:36:37;12.17;;;10.07;;
10795;SDS011;5450;42.994;23.372;2022-11-15T01:39:04;13.13;;;9.73;;
10795;SDS011;5450;42.994;23.372;2022-11-15T01:41:33;12.33;;;9.53;;
10795;SDS011;5450;42.994;23.372;2022-11-15T01:47:01;16.20;;;9.90;;
10795;SDS011;5450;42.994;23.372;2022-11-15T01:49:29;13.53;;;10.30;;
10795;SDS011;5450;42.994;23.372;2022-11-15T01:52:00;15.90;;;10.30;;
10795;SDS011;5450;42.994;23.372;2022-11-15T01:54:30;15.10;;;10.37;;
10795;SDS011;5450;42.994;23.372;2022-11-15T01:56:59;11.97;;;9.10;;
10795;SDS011;5450;42.994;23.372;2022-11-15T01:59:33;12.43;;;10.07;;
10795;SDS011;5450;42.994;23.372;2022-11-15T02:02:00;13.27;;;10.00;;
10795;SDS011;5450;42.994;23.372;2022-11-15T02:04:29;13.13;;;9.23;;
10795;SDS011;5450;42.994;23.372;2022-11-15T02:06:58;14.27;;;9.57;;
10795;SDS011;5450;42.994;23.372;2022-11-15T02:09:28;13.53;;;9.00;;
10795;SDS011;5450;42.994;23.372;2022-11-15T02:11:55;11.80;;;8.87;;
10795;SDS011;5450;42.994;23.372;2022-11-15T02:14:25;13.43;;;8.70;;
10795;SDS011;5450;42.994;23.372;2022-11-15T02:16:57;14.57;;;9.70;;
10795;SDS011;5450;42.994;23.372;2022-11-15T02:22:37;11.37;;;8.87;;
10795;SDS011;5450;42.994;23.372;2022-11-15T02:31:17;13.70;;;9.03;;
10795;SDS011;5450;42.994;23.372;2022-11-15T02:33:57;12.63;;;9.33;;
10795;SDS011;5450;42.994;23.372;2022-11-15T02:36:36;12.87;;;9.57;;
10795;SDS011;5450;42.994;23.372;2022-11-15T02:39:11;14.63;;;9.40;;
10795;SDS011;5450;42.994;23.372;2022-11-15T02:48:14;13.50;;;9.73;;
10795;SDS011;5450;42.994;23.372;2022-11-15T02:50:43;13.73;;;8.33;;
10795;SDS011;5450;42.994;23.372;2022-11-15T02:53:11;15.00;;;9.67;;
10795;SDS011;5450;42.994;23.372;2022-11-15T02:55:38;16.53;;;10.40;;
10795;SDS011;5450;42.994;23.372;2022-11-15T02:58:15;18.70;;;11.10;;
10795;SDS011;5450;42.994;23.372;2022-11-15T03:01:00;16.30;;;10.87;;
10795;SDS011;5450;42.994;23.372;2022-11-15T03:06:29;12.47;;;8.63;;
10795;SDS011;5450;42.994;23.372;2022-11-15T03:09:03;11.50;;;8.27;;
10795;SDS011;5450;42.994;23.372;2022-11-15T03:11:32;13.23;;;8.33;;
10795;SDS011;5450;42.994;23.372;2022-11-15T03:14:06;12.57;;;8.63;;
10795;SDS011;5450;42.994;23.372;2022-11-15T03:16:40;14.20;;;9.07;;
10795;SDS011;5450;42.994;23.372;2022-11-15T03:19:14;11.77;;;8.20;;
10795;SDS011;5450;42.994;23.372;2022-11-15T03:21:51;11.53;;;8.40;;
10795;SDS011;5450;42.994;23.372;2022-11-15T03:24:24;10.60;;;8.03;;
10795;SDS011;5450;42.994;23.372;2022-11-15T03:26:56;12.50;;;8.47;;
10795;SDS011;5450;42.994;23.372;2022-11-15T03:29:26;9.93;;;7.33;;
10795;SDS011;5450;42.994;23.372;2022-11-15T03:31:58;8.43;;;7.13;;
10795;SDS011;5450;42.994;23.372;2022-11-15T03:34:32;10.87;;;8.57;;
10795;SDS011;5450;42.994;23.372;2022-11-15T03:37:04;10.37;;;8.20;;
10795;SDS011;5450;42.994;23.372;2022-11-15T03:39:33;12.93;;;8.83;;
10795;SDS011;5450;42.994;23.372;2022-11-15T03:42:03;9.03;;;7.67;;
10795;SDS011;5450;42.994;23.372;2022-11-15T03:44:41;36.37;;;16.43;;
10795;SDS011;5450;42.994;23.372;2022-11-15T03:47:13;13.73;;;10.50;;
10795;SDS011;5450;42.994;23.372;2022-11-15T03:49:55;12.63;;;8.63;;
10795;SDS011;5450;42.994;23.372;2022-11-15T03:52:31;12.07;;;9.30;;
10795;SDS011;5450;42.994;23.372;2022-11-15T03:55:04;10.20;;;8.53;;
10795;SDS011;5450;42.994;23.372;2022-11-15T03:57:34;11.30;;;7.90;;
10795;SDS011;5450;42.994;23.372;2022-11-15T04:00:01;11.63;;;8.07;;
10795;SDS011;5450;42.994;23.372;2022-11-15T04:02:28;9.83;;;7.57;;
10795;SDS011;5450;42.994;23.372;2022-11-15T04:04:57;9.50;;;7.80;;
10795;SDS011;5450;42.994;23.372;2022-11-15T04:07:25;10.07;;;7.67;;
10795;SDS011;5450;42.994;23.372;2022-11-15T04:09:52;9.90;;;8.00;;
10795;SDS011;5450;42.994;23.372;2022-11-15T04:12:28;9.63;;;7.33;;
10795;SDS011;5450;42.994;23.372;2022-11-15T04:14:59;9.07;;;7.70;;
10795;SDS011;5450;42.994;23.372;2022-11-15T04:17:37;10.27;;;7.47;;
10795;SDS011;5450;42.994;23.372;2022-11-15T04:20:08;11.17;;;8.77;;
10795;SDS011;5450;42.994;23.372;2022-11-15T04:23:00;11.30;;;8.17;;
10795;SDS011;5450;42.994;23.372;2022-11-15T04:25:48;8.60;;;7.63;;
10795;SDS011;5450;42.994;23.372;2022-11-15T04:28:17;9.27;;;7.90;;
10795;SDS011;5450;42.994;23.372;2022-11-15T04:30:44;11.13;;;7.77;;
10795;SDS011;5450;42.994;23.372;2022-11-15T04:33:12;10.60;;;7.53;;
10795;SDS011;5450;42.994;23.372;2022-11-15T04:35:44;10.03;;;7.67;;
10795;SDS011;5450;42.994;23.372;2022-11-15T04:38:31;8.73;;;7.37;;
10795;SDS011;5450;42.994;23.372;2022-11-15T04:40:59;9.23;;;7.37;;
10795;SDS011;5450;42.994;23.372;2022-11-15T04:43:33;9.30;;;7.37;;
10795;SDS011;5450;42.994;23.372;2022-11-15T04:46:03;8.20;;;6.87;;
10795;SDS011;5450;42.994;23.372;2022-11-15T04:51:57;7.77;;;6.50;;
10795;SDS011;5450;42.994;23.372;2022-11-15T05:00:10;8.00;;;6.90;;
10795;SDS011;5450;42.994;23.372;2022-11-15T05:02:44;7.60;;;6.90;;
10795;SDS011;5450;42.994;23.372;2022-11-15T05:05:28;10.10;;;6.93;;
10795;SDS011;5450;42.994;23.372;2022-11-15T05:11:20;7.53;;;6.63;;
10795;SDS011;5450;42.994;23.372;2022-11-15T05:20:26;7.37;;;6.10;;
10795;SDS011;5450;42.994;23.372;2022-11-15T05:22:53;10.83;;;8.37;;
10795;SDS011;5450;42.994;23.372;2022-11-15T05:25:21;8.87;;;7.43;;
10795;SDS011;5450;42.994;23.372;2022-11-15T05:27:49;9.37;;;6.20;;
10795;SDS011;5450;42.994;23.372;2022-11-15T05:30:17;7.93;;;6.40;;
10795;SDS011;5450;42.994;23.372;2022-11-15T05:32:44;6.40;;;5.90;;
10795;SDS011;5450;42.994;23.372;2022-11-15T05:35:12;7.00;;;6.10;;
10795;SDS011;5450;42.994;23.372;2022-11-15T05:37:45;7.23;;;6.50;;
10795;SDS011;5450;42.994;23.372;2022-11-15T05:40:12;6.80;;;6.13;;
10795;SDS011;5450;42.994;23.372;2022-11-15T05:42:40;6.87;;;6.17;;
10795;SDS011;5450;42.994;23.372;2022-11-15T05:45:09;8.07;;;6.57;;
10795;SDS011;5450;42.994;23.372;2022-11-15T05:47:36;6.83;;;5.80;;
10795;SDS011;5450;42.994;23.372;2022-11-15T05:50:05;7.03;;;6.30;;
10795;SDS011;5450;42.994;23.372;2022-11-15T05:55:29;8.10;;;7.03;;
10795;SDS011;5450;42.994;23.372;2022-11-15T05:57:57;7.30;;;6.20;;
10795;SDS011;5450;42.994;23.372;2022-11-15T06:07:50;7.57;;;6.63;;
10795;SDS011;5450;42.994;23.372;2022-11-15T06:13:11;7.97;;;6.83;;
10795;SDS011;5450;42.994;23.372;2022-11-15T06:15:40;6.97;;;6.33;;
10795;SDS011;5450;42.994;23.372;2022-11-15T06:18:09;8.47;;;7.43;;
10795;SDS011;5450;42.994;23.372;2022-11-15T06:20:38;9.50;;;6.80;;
10795;SDS011;5450;42.994;23.372;2022-11-15T06:23:10;9.73;;;7.63;;
10795;SDS011;5450;42.994;23.372;2022-11-15T06:25:40;12.30;;;7.03;;
10795;SDS011;5450;42.994;23.372;2022-11-15T06:28:08;8.47;;;7.10;;
10795;SDS011;5450;42.994;23.372;2022-11-15T06:30:36;11.73;;;7.40;;
10795;SDS011;5450;42.994;23.372;2022-11-15T06:36:22;8.87;;;7.50;;
10795;SDS011;5450;42.994;23.372;2022-11-15T06:38:50;8.03;;;7.17;;
10795;SDS011;5450;42.994;23.372;2022-11-15T06:41:17;8.27;;;7.00;;
10795;SDS011;5450;42.994;23.372;2022-11-15T06:43:46;11.43;;;7.80;;
10795;SDS011;5450;42.994;23.372;2022-11-15T06:46:15;11.33;;;7.80;;
10795;SDS011;5450;42.994;23.372;2022-11-15T06:48:42;10.03;;;7.10;;
10795;SDS011;5450;42.994;23.372;2022-11-15T06:51:10;9.30;;;7.27;;
10795;SDS011;5450;42.994;23.372;2022-11-15T06:57:21;7.83;;;7.03;;
10795;SDS011;5450;42.994;23.372;2022-11-15T06:59:48;10.90;;;7.57;;
10795;SDS011;5450;42.994;23.372;2022-11-15T07:05:11;10.40;;;7.63;;
10795;SDS011;5450;42.994;23.372;2022-11-15T07:07:40;8.57;;;7.47;;
10795;SDS011;5450;42.994;23.372;2022-11-15T07:10:08;10.27;;;7.40;;
10795;SDS011;5450;42.994;23.372;2022-11-15T07:12:45;11.07;;;7.50;;
10795;SDS011;5450;42.994;23.372;2022-11-15T07:15:13;7.50;;;6.80;;
10795;SDS011;5450;42.994;23.372;2022-11-15T07:17:41;7.73;;;7.03;;
10795;SDS011;5450;42.994;23.372;2022-11-15T07:20:09;9.40;;;7.33;;
10795;SDS011;5450;42.994;23.372;2022-11-15T07:22:40;9.87;;;7.57;;
10795;SDS011;5450;42.994;23.372;2022-11-15T07:25:08;7.87;;;6.87;;
10795;SDS011;5450;42.994;23.372;2022-11-15T07:27:35;8.53;;;7.17;;
10795;SDS011;5450;42.994;23.372;2022-11-15T07:30:05;9.30;;;7.37;;
10795;SDS011;5450;42.994;23.372;2022-11-15T07:32:32;9.60;;;7.50;;
10795;SDS011;5450;42.994;23.372;2022-11-15T07:35:02;9.03;;;7.57;;
10795;SDS011;5450;42.994;23.372;2022-11-15T07:37:29;9.13;;;7.30;;
10795;SDS011;5450;42.994;23.372;2022-11-15T07:39:56;9.10;;;7.47;;
10795;SDS011;5450;42.994;23.372;2022-11-15T07:42:24;11.47;;;8.07;;
10795;SDS011;5450;42.994;23.372;2022-11-15T07:45:14;8.93;;;7.97;;
10795;SDS011;5450;42.994;23.372;2022-11-15T07:47:41;12.23;;;8.87;;
10795;SDS011;5450;42.994;23.372;2022-11-15T07:50:12;11.53;;;8.47;;
10795;SDS011;5450;42.994;23.372;2022-11-15T07:52:39;9.70;;;7.90;;
10795;SDS011;5450;42.994;23.372;2022-11-15T07:55:07;11.33;;;7.90;;
10795;SDS011;5450;42.994;23.372;2022-11-15T07:57:43;14.47;;;12.47;;
10795;SDS011;5450;42.994;23.372;2022-11-15T08:01:01;8.50;;;7.27;;
10795;SDS011;5450;42.994;23.372;2022-11-15T08:04:00;9.50;;;7.63;;
10795;SDS011;5450;42.994;23.372;2022-11-15T08:07:04;8.87;;;7.97;;
10795;SDS011;5450;42.994;23.372;2022-11-15T08:09:59;9.57;;;7.60;;
10795;SDS011;5450;42.994;23.372;2022-11-15T08:15:43;9.93;;;7.60;;
10795;SDS011;5450;42.994;23.372;2022-11-15T08:18:14;8.93;;;7.17;;
10795;SDS011;5450;42.994;23.372;2022-11-15T08:20:43;9.27;;;7.33;;
10795;SDS011;5450;42.994;23.372;2022-11-15T08:23:16;8.00;;;7.27;;
10795;SDS011;5450;42.994;23.372;2022-11-15T08:28:33;9.03;;;7.67;;
10795;SDS011;5450;42.994;23.372;2022-11-15T08:31:19;10.13;;;7.87;;
10795;SDS011;5450;42.994;23.372;2022-11-15T08:33:54;8.80;;;7.90;;
10795;SDS011;5450;42.994;23.372;2022-11-15T08:36:35;7.90;;;6.97;;
10795;SDS011;5450;42.994;23.372;2022-11-15T08:39:15;10.63;;;7.87;;
10795;SDS011;5450;42.994;23.372;2022-11-15T08:42:00;10.40;;;8.73;;
10795;SDS011;5450;42.994;23.372;2022-11-15T08:44:40;8.27;;;6.70;;
10795;SDS011;5450;42.994;23.372;2022-11-15T08:47:35;9.13;;;8.13;;
10795;SDS011;5450;42.994;23.372;2022-11-15T08:50:14;8.80;;;6.57;;
10795;SDS011;5450;42.994;23.372;2022-11-15T08:52:43;8.67;;;7.30;;
10795;SDS011;5450;42.994;23.372;2022-11-15T08:55:17;10.77;;;7.70;;
10795;SDS011;5450;42.994;23.372;2022-11-15T08:57:51;8.47;;;7.67;;
10795;SDS011;5450;42.994;23.372;2022-11-15T09:00:45;9.27;;;7.80;;
10795;SDS011;5450;42.994;23.372;2022-11-15T09:04:07;8.63;;;7.70;;
10795;SDS011;5450;42.994;23.372;2022-11-15T09:10:09;7.93;;;6.90;;
10795;SDS011;5450;42.994;23.372;2022-11-15T09:12:42;9.67;;;7.40;;
10795;SDS011;5450;42.994;23.372;2022-11-15T09:15:12;8.70;;;7.83;;
10795;SDS011;5450;42.994;23.372;2022-11-15T09:18:09;8.73;;;7.77;;
10795;SDS011;5450;42.994;23.372;2022-11-15T09:24:00;9.07;;;8.23;;
10795;SDS011;5450;42.994;23.372;2022-11-15T09:42:52;11.37;;;8.33;;
10795;SDS011;5450;42.994;23.372;2022-11-15T09:48:53;10.53;;;8.80;;
10795;SDS011;5450;42.994;23.372;2022-11-15T09:51:43;9.53;;;8.47;;
10795;SDS011;5450;42.994;23.372;2022-11-15T09:54:35;8.37;;;7.60;;
10795;SDS011;5450;42.994;23.372;2022-11-15T09:57:20;8.93;;;8.03;;
10795;SDS011;5450;42.994;23.372;2022-11-15T10:00:19;12.93;;;9.00;;
10795;SDS011;5450;42.994;23.372;2022-11-15T10:09:14;9.70;;;8.77;;
10795;SDS011;5450;42.994;23.372;2022-11-15T10:12:21;9.20;;;8.10;;
10795;SDS011;5450;42.994;23.372;2022-11-15T10:28:43;9.53;;;8.10;;
10795;SDS011;5450;42.994;23.372;2022-11-15T10:59:00;8.87;;;8.00;;
10795;SDS011;5450;42.994;23.372;2022-11-15T11:21:34;8.67;;;7.77;;
10795;SDS011;5450;42.994;23.372;2022-11-15T11:31:53;9.90;;;8.43;;
10795;SDS011;5450;42.994;23.372;2022-11-15T11:42:04;9.93;;;9.03;;
10795;SDS011;5450;42.994;23.372;2022-11-15T11:48:14;10.63;;;9.63;;
10795;SDS011;5450;42.994;23.372;2022-11-15T11:54:31;11.33;;;10.03;;
10795;SDS011;5450;42.994;23.372;2022-11-15T12:01:08;13.10;;;10.13;;
10795;SDS011;5450;42.994;23.372;2022-11-15T12:10:24;13.30;;;10.30;;
10795;SDS011;5450;42.994;23.372;2022-11-15T12:16:32;11.23;;;9.77;;
10795;SDS011;5450;42.994;23.372;2022-11-15T12:26:26;14.43;;;10.30;;
10795;SDS011;5450;42.994;23.372;2022-11-15T13:04:49;11.07;;;9.97;;
10795;SDS011;5450;42.994;23.372;2022-11-15T13:15:01;9.77;;;8.77;;
10795;SDS011;5450;42.994;23.372;2022-11-15T13:31:50;13.10;;;10.57;;
10795;SDS011;5450;42.994;23.372;2022-11-15T13:38:03;11.97;;;9.87;;
10795;SDS011;5450;42.994;23.372;2022-11-15T13:40:45;13.53;;;10.60;;
10795;SDS011;5450;42.994;23.372;2022-11-15T13:43:15;17.90;;;13.33;;
10795;SDS011;5450;42.994;23.372;2022-11-15T13:52:32;10.00;;;9.03;;
10795;SDS011;5450;42.994;23.372;2022-11-15T14:02:27;15.13;;;10.73;;
10795;SDS011;5450;42.994;23.372;2022-11-15T14:26:39;9.50;;;8.60;;
10795;SDS011;5450;42.994;23.372;2022-11-15T14:29:21;14.33;;;11.87;;
10795;SDS011;5450;42.994;23.372;2022-11-15T14:31:49;19.20;;;12.47;;
10795;SDS011;5450;42.994;23.372;2022-11-15T14:37:37;11.63;;;8.97;;
10795;SDS011;5450;42.994;23.372;2022-11-15T14:40:11;11.27;;;8.93;;
10795;SDS011;5450;42.994;23.372;2022-11-15T14:46:22;8.20;;;7.50;;
10795;SDS011;5450;42.994;23.372;2022-11-15T14:48:49;8.20;;;7.30;;
10795;SDS011;5450;42.994;23.372;2022-11-15T14:54:35;7.73;;;7.03;;
10795;SDS011;5450;42.994;23.372;2022-11-15T15:00:22;9.17;;;6.97;;
10795;SDS011;5450;42.994;23.372;2022-11-15T15:06:35;7.40;;;6.70;;
10795;SDS011;5450;42.994;23.372;2022-11-15T15:09:05;9.33;;;8.00;;
10795;SDS011;5450;42.994;23.372;2022-11-15T15:11:36;7.83;;;7.07;;
10795;SDS011;5450;42.994;23.372;2022-11-15T15:14:04;8.77;;;7.97;;
10795;SDS011;5450;42.994;23.372;2022-11-15T15:16:32;7.57;;;6.87;;
10795;SDS011;5450;42.994;23.372;2022-11-15T15:19:03;9.33;;;8.43;;
10795;SDS011;5450;42.994;23.372;2022-11-15T15:21:31;11.57;;;8.30;;
10795;SDS011;5450;42.994;23.372;2022-11-15T15:24:01;8.93;;;8.13;;
10795;SDS011;5450;42.994;23.372;2022-11-15T15:26:30;8.80;;;7.97;;
10795;SDS011;5450;42.994;23.372;2022-11-15T15:29:01;8.70;;;7.30;;
10795;SDS011;5450;42.994;23.372;2022-11-15T15:31:29;10.07;;;8.67;;
10795;SDS011;5450;42.994;23.372;2022-11-15T15:37:06;9.17;;;8.37;;
10795;SDS011;5450;42.994;23.372;2022-11-15T15:39:36;8.20;;;7.50;;
10795;SDS011;5450;42.994;23.372;2022-11-15T15:51:13;10.20;;;9.13;;
10795;SDS011;5450;42.994;23.372;2022-11-15T15:57:24;8.60;;;7.80;;
10795;SDS011;5450;42.994;23.372;2022-11-15T15:59:52;8.93;;;8.03;;
10795;SDS011;5450;42.994;23.372;2022-11-15T16:02:20;10.50;;;8.10;;
10795;SDS011;5450;42.994;23.372;2022-11-15T16:07:42;10.13;;;8.30;;
10795;SDS011;5450;42.994;23.372;2022-11-15T16:10:19;8.67;;;7.73;;
10795;SDS011;5450;42.994;23.372;2022-11-15T16:15:45;10.07;;;8.73;;
10795;SDS011;5450;42.994;23.372;2022-11-15T16:18:17;8.63;;;7.47;;
10795;SDS011;5450;42.994;23.372;2022-11-15T16:20:45;8.83;;;7.87;;
10795;SDS011;5450;42.994;23.372;2022-11-15T16:33:47;13.37;;;11.03;;
10795;SDS011;5450;42.994;23.372;2022-11-15T16:46:57;13.37;;;11.17;;
10795;SDS011;5450;42.994;23.372;2022-11-15T16:49:24;14.10;;;11.77;;
10795;SDS011;5450;42.994;23.372;2022-11-15T16:55:32;13.60;;;11.33;;
10795;SDS011;5450;42.994;23.372;2022-11-15T17:01:41;12.27;;;10.97;;
10795;SDS011;5450;42.994;23.372;2022-11-15T17:07:50;13.23;;;10.67;;
10795;SDS011;5450;42.994;23.372;2022-11-15T17:10:52;12.80;;;10.47;;
10795;SDS011;5450;42.994;23.372;2022-11-15T17:20:29;18.30;;;14.30;;
10795;SDS011;5450;42.994;23.372;2022-11-15T17:26:42;22.40;;;14.50;;
10795;SDS011;5450;42.994;23.372;2022-11-15T18:00:52;32.03;;;21.00;;
10795;SDS011;5450;42.994;23.372;2022-11-15T18:09:17;35.57;;;23.40;;
10795;SDS011;5450;42.994;23.372;2022-11-15T18:18:54;41.03;;;24.40;;
10795;SDS011;5450;42.994;23.372;2022-11-15T18:21:28;42.27;;;25.73;;
10795;SDS011;5450;42.994;23.372;2022-11-15T18:24:51;48.50;;;28.77;;
10795;SDS011;5450;42.994;23.372;2022-11-15T18:30:42;55.90;;;32.77;;
10795;SDS011;5450;42.994;23.372;2022-11-15T18:33:16;51.67;;;31.63;;
10795;SDS011;5450;42.994;23.372;2022-11-15T18:36:08;53.50;;;30.77;;
10795;SDS011;5450;42.994;23.372;2022-11-15T18:38:42;45.73;;;27.33;;
10795;SDS011;5450;42.994;23.372;2022-11-15T18:41:24;37.40;;;23.97;;
10795;SDS011;5450;42.994;23.372;2022-11-15T18:44:32;39.70;;;24.40;;
10795;SDS011;5450;42.994;23.372;2022-11-15T18:47:25;41.13;;;25.37;;
10795;SDS011;5450;42.994;23.372;2022-11-15T18:50:18;40.73;;;26.43;;
10795;SDS011;5450;42.994;23.372;2022-11-15T18:52:46;34.80;;;24.30;;
10795;SDS011;5450;42.994;23.372;2022-11-15T18:55:19;36.13;;;24.63;;
10795;SDS011;5450;42.994;23.372;2022-11-15T18:57:50;36.50;;;24.03;;
10795;SDS011;5450;42.994;23.372;2022-11-15T19:00:20;39.00;;;25.60;;
10795;SDS011;5450;42.994;23.372;2022-11-15T19:02:52;40.33;;;27.50;;
10795;SDS011;5450;42.994;23.372;2022-11-15T19:05:22;42.70;;;26.23;;
10795;SDS011;5450;42.994;23.372;2022-11-15T19:14:07;51.50;;;29.97;;
10795;SDS011;5450;42.994;23.372;2022-11-15T19:19:30;40.90;;;26.37;;
10795;SDS011;5450;42.994;23.372;2022-11-15T19:21:59;52.40;;;29.33;;
10795;SDS011;5450;42.994;23.372;2022-11-15T19:24:28;48.67;;;29.07;;
10795;SDS011;5450;42.994;23.372;2022-11-15T19:26:57;48.53;;;27.77;;
10795;SDS011;5450;42.994;23.372;2022-11-15T19:35:34;40.20;;;25.47;;
10795;SDS011;5450;42.994;23.372;2022-11-15T19:38:01;38.37;;;25.03;;
10795;SDS011;5450;42.994;23.372;2022-11-15T19:40:32;46.53;;;27.63;;
10795;SDS011;5450;42.994;23.372;2022-11-15T19:43:01;49.00;;;28.23;;
10795;SDS011;5450;42.994;23.372;2022-11-15T19:45:28;49.10;;;31.03;;
10795;SDS011;5450;42.994;23.372;2022-11-15T19:51:13;45.70;;;27.47;;
10795;SDS011;5450;42.994;23.372;2022-11-15T19:53:43;45.07;;;27.83;;
10795;SDS011;5450;42.994;23.372;2022-11-15T19:56:14;43.37;;;27.30;;
10795;SDS011;5450;42.994;23.372;2022-11-15T19:58:46;49.57;;;28.23;;
10795;SDS011;5450;42.994;23.372;2022-11-15T20:08:18;38.73;;;23.60;;
10795;SDS011;5450;42.994;23.372;2022-11-15T20:10:49;39.87;;;24.70;;
10795;SDS011;5450;42.994;23.372;2022-11-15T20:13:16;41.13;;;24.90;;
10795;SDS011;5450;42.994;23.372;2022-11-15T20:21:37;39.00;;;24.07;;
10795;SDS011;5450;42.994;23.372;2022-11-15T20:24:05;41.70;;;25.37;;
10795;SDS011;5450;42.994;23.372;2022-11-15T20:26:35;35.60;;;24.43;;
10795;SDS011;5450;42.994;23.372;2022-11-15T20:29:06;34.10;;;23.73;;
10795;SDS011;5450;42.994;23.372;2022-11-15T20:31:36;43.63;;;25.37;;
10795;SDS011;5450;42.994;23.372;2022-11-15T20:34:04;42.70;;;26.17;;
10795;SDS011;5450;42.994;23.372;2022-11-15T20:36:33;38.83;;;24.80;;
10795;SDS011;5450;42.994;23.372;2022-11-15T20:39:00;35.20;;;23.83;;
10795;SDS011;5450;42.994;23.372;2022-11-15T20:41:31;37.37;;;23.07;;
10795;SDS011;5450;42.994;23.372;2022-11-15T21:13:12;35.17;;;24.33;;
10795;SDS011;5450;42.994;23.372;2022-11-15T21:15:41;39.67;;;22.53;;
10795;SDS011;5450;42.994;23.372;2022-11-15T21:18:25;37.60;;;24.13;;
10795;SDS011;5450;42.994;23.372;2022-11-15T21:21:00;41.87;;;25.43;;
10795;SDS011;5450;42.994;23.372;2022-11-15T21:23:28;37.80;;;23.73;;
10795;SDS011;5450;42.994;23.372;2022-11-15T21:25:59;42.97;;;26.13;;
10795;SDS011;5450;42.994;23.372;2022-11-15T21:28:32;41.80;;;25.73;;
10795;SDS011;5450;42.994;23.372;2022-11-15T21:31:00;39.40;;;25.33;;
10795;SDS011;5450;42.994;23.372;2022-11-15T21:33:28;40.83;;;26.07;;
10795;SDS011;5450;42.994;23.372;2022-11-15T21:35:57;37.07;;;25.40;;
10795;SDS011;5450;42.994;23.372;2022-11-15T21:38:26;36.37;;;22.83;;
10795;SDS011;5450;42.994;23.372;2022-11-15T21:40:55;34.80;;;22.27;;
10795;SDS011;5450;42.994;23.372;2022-11-15T21:43:24;32.83;;;22.87;;
10795;SDS011;5450;42.994;23.372;2022-11-15T21:52:04;36.40;;;24.43;;
10795;SDS011;5450;42.994;23.372;2022-11-15T21:54:34;40.70;;;24.67;;
10795;SDS011;5450;42.994;23.372;2022-11-15T22:00:00;33.27;;;22.97;;
10795;SDS011;5450;42.994;23.372;2022-11-15T22:32:25;25.17;;;17.83;;
